createdAt,value
2022-12-25T00:00:31.143Z,0.00
2022-12-25T00:01:31.292Z,0.00
2022-12-25T00:02:31.588Z,0.00
2022-12-25T00:03:31.650Z,0.00
2022-12-25T00:04:31.752Z,0.00
2022-12-25T00:05:31.923Z,0.00
2022-12-25T00:06:32.077Z,0.00
2022-12-25T00:07:32.264Z,0.00
2022-12-25T00:08:32.444Z,0.00
2022-12-25T00:09:32.641Z,0.00
2022-12-25T00:10:32.809Z,0.00
2022-12-25T00:11:32.971Z,0.00
2022-12-25T00:12:33.194Z,0.00
2022-12-25T00:13:33.353Z,0.00
2022-12-25T00:14:33.537Z,0.00
2022-12-25T00:15:33.733Z,0.00
2022-12-25T00:16:34.065Z,0.00
2022-12-25T00:17:34.022Z,0.00
2022-12-25T00:18:34.179Z,0.00
2022-12-25T00:19:34.381Z,0.00
2022-12-25T00:20:34.545Z,0.00
2022-12-25T00:21:34.741Z,0.00
2022-12-25T00:22:34.942Z,0.00
2022-12-25T00:23:35.111Z,0.00
2022-12-25T00:24:35.288Z,0.00
2022-12-25T00:25:35.486Z,0.00
2022-12-25T00:26:35.669Z,0.00
2022-12-25T00:27:35.865Z,0.00
2022-12-25T00:28:36.057Z,0.00
2022-12-25T00:29:36.283Z,0.00
2022-12-25T00:30:36.343Z,0.00
2022-12-25T00:31:36.568Z,0.00
2022-12-25T00:32:36.615Z,0.00
2022-12-25T00:33:36.795Z,0.00
2022-12-25T00:34:36.985Z,0.00
2022-12-25T00:35:37.213Z,0.00
2022-12-25T00:36:41.657Z,0.00
2022-12-25T00:37:38.423Z,0.00
2022-12-25T00:38:37.603Z,0.00
2022-12-25T00:39:37.849Z,0.00
2022-12-25T00:40:37.881Z,0.00
2022-12-25T00:41:38.057Z,0.00
2022-12-25T00:42:38.225Z,0.00
2022-12-25T00:43:38.427Z,0.00
2022-12-25T00:44:38.604Z,0.00
2022-12-25T00:45:38.856Z,0.00
2022-12-25T00:46:38.991Z,0.00
2022-12-25T00:47:39.074Z,0.00
2022-12-25T00:48:39.237Z,0.00
2022-12-25T00:49:39.451Z,0.00
2022-12-25T00:50:39.608Z,0.00
2022-12-25T00:51:39.818Z,0.00
2022-12-25T00:52:39.985Z,0.00
2022-12-25T00:53:40.175Z,0.00
2022-12-25T00:54:40.386Z,0.00
2022-12-25T00:55:40.471Z,0.00
2022-12-25T00:56:40.652Z,0.00
2022-12-25T00:57:40.833Z,0.00
2022-12-25T00:58:41.014Z,0.00
2022-12-25T00:59:41.226Z,0.00
2022-12-25T01:00:41.323Z,0.00
2022-12-25T01:01:41.548Z,0.00
2022-12-25T01:02:41.719Z,0.00
2022-12-25T01:03:41.838Z,0.00
2022-12-25T01:04:42.027Z,0.00
2022-12-25T01:05:42.182Z,0.00
2022-12-25T01:06:42.378Z,0.00
2022-12-25T01:07:42.567Z,0.00
2022-12-25T01:08:42.736Z,0.00
2022-12-25T01:09:42.937Z,0.00
2022-12-25T01:10:43.096Z,0.00
2022-12-25T01:11:43.308Z,0.00
2022-12-25T01:12:43.463Z,0.00
2022-12-25T01:13:43.649Z,0.00
2022-12-25T01:14:43.976Z,0.00
2022-12-25T01:15:43.931Z,0.00
2022-12-25T01:16:44.168Z,0.00
2022-12-25T01:17:44.240Z,0.00
2022-12-25T01:18:44.408Z,0.00
2022-12-25T01:19:44.601Z,0.00
2022-12-25T01:20:44.783Z,0.00
2022-12-25T01:21:44.959Z,0.00
2022-12-25T01:22:45.102Z,0.00
2022-12-25T01:23:45.298Z,0.00
2022-12-25T01:24:45.479Z,0.00
2022-12-25T01:25:45.687Z,0.00
2022-12-25T01:26:45.746Z,0.00
2022-12-25T01:27:45.926Z,0.00
2022-12-25T01:28:46.216Z,0.00
2022-12-25T01:29:46.302Z,0.00
2022-12-25T01:30:46.476Z,0.00
2022-12-25T01:31:46.727Z,0.00
2022-12-25T01:32:46.793Z,0.00
2022-12-25T01:33:46.979Z,0.00
2022-12-25T01:34:50.578Z,0.00
2022-12-25T01:35:48.309Z,0.00
2022-12-25T01:36:47.465Z,0.00
2022-12-25T01:37:47.654Z,0.00
2022-12-25T01:38:47.828Z,0.00
2022-12-25T01:39:48.045Z,0.00
2022-12-25T01:40:48.115Z,0.00
2022-12-25T01:41:48.298Z,0.00
2022-12-25T01:42:48.474Z,0.00
2022-12-25T01:43:48.644Z,0.00
2022-12-25T01:44:48.835Z,0.00
2022-12-25T01:45:49.036Z,0.00
2022-12-25T01:46:49.182Z,0.00
2022-12-25T01:47:49.367Z,0.00
2022-12-25T01:48:49.530Z,0.00
2022-12-25T01:49:49.738Z,0.00
2022-12-25T01:50:49.943Z,0.00
2022-12-25T01:51:50.119Z,0.00
2022-12-25T01:52:50.297Z,0.00
2022-12-25T01:53:50.474Z,0.00
2022-12-25T01:54:50.667Z,0.00
2022-12-25T01:55:50.843Z,0.00
2022-12-25T01:56:51.012Z,0.00
2022-12-25T01:57:51.200Z,0.00
2022-12-25T01:58:51.376Z,0.00
2022-12-25T01:59:51.584Z,0.00
2022-12-25T02:00:51.800Z,0.00
2022-12-25T02:01:52.092Z,0.00
2022-12-25T02:02:52.239Z,0.00
2022-12-25T02:03:52.264Z,0.00
2022-12-25T02:04:52.499Z,0.00
2022-12-25T02:05:52.556Z,0.00
2022-12-25T02:06:52.756Z,0.00
2022-12-25T02:07:52.936Z,0.00
2022-12-25T02:08:53.109Z,0.00
2022-12-25T02:09:53.322Z,0.00
2022-12-25T02:10:53.497Z,0.00
2022-12-25T02:11:53.725Z,0.00
2022-12-25T02:12:53.855Z,0.00
2022-12-25T02:13:54.067Z,0.00
2022-12-25T02:14:56.304Z,0.00
2022-12-25T02:15:55.382Z,0.00
2022-12-25T02:16:56.993Z,0.00
2022-12-25T02:17:54.749Z,0.00
2022-12-25T02:18:54.943Z,0.00
2022-12-25T02:19:55.145Z,0.00
2022-12-25T02:20:55.346Z,0.00
2022-12-25T02:21:55.541Z,0.00
2022-12-25T02:22:55.717Z,0.00
2022-12-25T02:23:55.911Z,0.00
2022-12-25T02:24:56.104Z,0.00
2022-12-25T02:25:56.302Z,0.00
2022-12-25T02:26:56.477Z,0.00
2022-12-25T02:27:56.680Z,0.00
2022-12-25T02:28:56.857Z,0.00
2022-12-25T02:29:57.061Z,0.00
2022-12-25T02:30:57.234Z,0.00
2022-12-25T02:31:57.439Z,0.00
2022-12-25T02:32:57.543Z,0.00
2022-12-25T02:33:57.722Z,0.00
2022-12-25T02:34:57.916Z,0.00
2022-12-25T02:35:58.126Z,0.00
2022-12-25T02:36:58.286Z,0.00
2022-12-25T02:37:58.475Z,0.00
2022-12-25T02:38:58.669Z,0.00
2022-12-25T02:39:58.915Z,0.00
2022-12-25T02:40:58.982Z,0.00
2022-12-25T02:41:59.170Z,0.00
2022-12-25T02:42:59.331Z,0.00
2022-12-25T02:43:59.529Z,0.00
2022-12-25T02:44:59.747Z,0.00
2022-12-25T02:45:59.968Z,0.00
2022-12-25T02:47:00.064Z,0.00
2022-12-25T02:48:00.263Z,0.00
2022-12-25T02:49:00.457Z,0.00
2022-12-25T02:50:00.648Z,0.00
2022-12-25T02:51:00.826Z,0.00
2022-12-25T02:52:01.085Z,0.00
2022-12-25T02:53:01.144Z,0.00
2022-12-25T02:54:01.324Z,0.00
2022-12-25T02:55:01.534Z,0.00
2022-12-25T02:56:01.728Z,0.00
2022-12-25T02:57:01.904Z,0.00
2022-12-25T02:58:02.076Z,0.00
2022-12-25T02:59:02.262Z,0.00
2022-12-25T03:00:02.470Z,0.00
2022-12-25T03:01:02.691Z,0.00
2022-12-25T03:02:02.948Z,0.00
2022-12-25T03:03:03.051Z,0.00
2022-12-25T03:04:03.131Z,0.00
2022-12-25T03:05:03.353Z,0.00
2022-12-25T03:06:03.542Z,0.00
2022-12-25T03:07:03.721Z,0.00
2022-12-25T03:08:03.909Z,0.00
2022-12-25T03:09:04.110Z,0.00
2022-12-25T03:10:04.320Z,0.00
2022-12-25T03:11:04.501Z,0.00
2022-12-25T03:12:04.671Z,0.00
2022-12-25T03:13:04.869Z,0.00
2022-12-25T03:14:05.081Z,0.00
2022-12-25T03:15:05.284Z,0.00
2022-12-25T03:16:05.389Z,0.00
2022-12-25T03:17:05.632Z,0.00
2022-12-25T03:18:05.697Z,0.00
2022-12-25T03:19:05.890Z,0.00
2022-12-25T03:20:06.086Z,0.00
2022-12-25T03:21:06.290Z,0.00
2022-12-25T03:22:06.479Z,0.00
2022-12-25T03:23:06.677Z,0.00
2022-12-25T03:24:06.867Z,0.00
2022-12-25T03:25:07.091Z,0.00
2022-12-25T03:26:07.284Z,0.00
2022-12-25T03:27:07.482Z,0.00
2022-12-25T03:28:07.773Z,0.00
2022-12-25T03:29:07.831Z,0.00
2022-12-25T03:30:09.038Z,0.00
2022-12-25T03:31:08.275Z,0.00
2022-12-25T03:32:08.416Z,0.00
2022-12-25T03:33:36.710Z,0.00
2022-12-25T03:34:09.639Z,0.00
2022-12-25T03:35:08.908Z,0.00
2022-12-25T03:36:08.987Z,0.00
2022-12-25T03:37:09.172Z,0.00
2022-12-25T03:38:09.367Z,0.00
2022-12-25T03:39:09.551Z,0.00
2022-12-25T03:40:09.792Z,0.00
2022-12-25T03:41:09.877Z,0.00
2022-12-25T03:42:10.071Z,0.00
2022-12-25T03:43:10.268Z,0.00
2022-12-25T03:44:10.452Z,0.00
2022-12-25T03:45:10.650Z,0.00
2022-12-25T03:46:10.931Z,0.00
2022-12-25T03:47:11.085Z,0.00
2022-12-25T03:48:11.178Z,0.00
2022-12-25T03:49:11.388Z,0.00
2022-12-25T03:50:11.633Z,0.00
2022-12-25T03:51:11.700Z,0.00
2022-12-25T03:52:11.897Z,0.00
2022-12-25T03:53:12.097Z,0.00
2022-12-25T03:54:12.282Z,0.00
2022-12-25T03:55:12.498Z,0.00
2022-12-25T03:56:12.682Z,0.00
2022-12-25T03:57:12.889Z,0.00
2022-12-25T03:58:13.112Z,0.00
2022-12-25T03:59:17.771Z,0.00
2022-12-25T04:00:14.454Z,0.00
2022-12-25T04:01:13.711Z,0.00
2022-12-25T04:02:13.906Z,0.00
2022-12-25T04:03:14.009Z,0.00
2022-12-25T04:04:14.115Z,0.00
2022-12-25T04:05:14.330Z,0.00
2022-12-25T04:06:14.512Z,0.00
2022-12-25T04:07:14.713Z,0.00
2022-12-25T04:08:14.924Z,0.00
2022-12-25T04:09:15.118Z,0.00
2022-12-25T04:10:15.312Z,0.00
2022-12-25T04:11:15.513Z,0.00
2022-12-25T04:12:15.708Z,0.00
2022-12-25T04:13:15.909Z,0.00
2022-12-25T04:14:16.102Z,0.00
2022-12-25T04:15:16.325Z,0.00
2022-12-25T04:16:16.602Z,0.00
2022-12-25T04:17:16.671Z,0.00
2022-12-25T04:18:16.867Z,0.00
2022-12-25T04:19:17.064Z,0.00
2022-12-25T04:20:17.252Z,0.00
2022-12-25T04:21:17.451Z,0.00
2022-12-25T04:22:17.642Z,0.00
2022-12-25T04:23:17.869Z,0.00
2022-12-25T04:24:18.069Z,0.00
2022-12-25T04:25:18.282Z,0.00
2022-12-25T04:26:18.481Z,0.00
2022-12-25T04:27:18.694Z,0.00
2022-12-25T04:28:18.893Z,0.00
2022-12-25T04:29:19.107Z,0.00
2022-12-25T04:30:19.272Z,0.00
2022-12-25T04:31:19.580Z,0.00
2022-12-25T04:32:19.653Z,0.00
2022-12-25T04:33:19.859Z,0.00
2022-12-25T04:34:20.055Z,0.00
2022-12-25T04:35:20.268Z,0.00
2022-12-25T04:36:20.473Z,0.00
2022-12-25T04:37:20.666Z,0.00
2022-12-25T04:38:20.885Z,0.00
2022-12-25T04:39:21.010Z,0.00
2022-12-25T04:40:21.207Z,0.00
2022-12-25T04:41:21.434Z,0.00
2022-12-25T04:42:21.659Z,0.00
2022-12-25T04:43:21.757Z,0.00
2022-12-25T04:44:21.939Z,0.00
2022-12-25T04:45:22.154Z,0.00
2022-12-25T04:46:22.413Z,0.00
2022-12-25T04:47:22.515Z,0.00
2022-12-25T04:48:22.710Z,0.00
2022-12-25T04:49:22.913Z,0.00
2022-12-25T04:50:23.124Z,0.00
2022-12-25T04:51:23.353Z,0.00
2022-12-25T04:52:23.545Z,0.00
2022-12-25T04:53:23.746Z,0.00
2022-12-25T04:54:23.941Z,0.00
2022-12-25T04:55:24.148Z,0.00
2022-12-25T04:56:24.376Z,0.00
2022-12-25T04:57:24.582Z,0.00
2022-12-25T04:58:24.777Z,0.00
2022-12-25T04:59:25.005Z,0.00
2022-12-25T05:00:25.143Z,0.00
2022-12-25T05:01:25.417Z,0.00
2022-12-25T05:02:25.679Z,0.00
2022-12-25T05:03:25.673Z,0.00
2022-12-25T05:04:25.859Z,0.00
2022-12-25T05:05:33.074Z,0.00
2022-12-25T05:06:26.923Z,0.00
2022-12-25T05:07:26.356Z,0.00
2022-12-25T05:08:26.569Z,0.00
2022-12-25T05:09:26.778Z,0.00
2022-12-25T05:10:26.989Z,0.00
2022-12-25T05:11:27.217Z,0.00
2022-12-25T05:12:27.313Z,0.00
2022-12-25T05:13:27.533Z,0.00
2022-12-25T05:14:27.755Z,0.00
2022-12-25T05:15:27.949Z,0.00
2022-12-25T05:16:28.119Z,0.00
2022-12-25T05:17:28.216Z,0.00
2022-12-25T05:18:28.322Z,0.00
2022-12-25T05:19:28.519Z,0.00
2022-12-25T05:20:29.777Z,0.00
2022-12-25T05:21:28.901Z,0.00
2022-12-25T05:22:29.131Z,0.00
2022-12-25T05:23:29.223Z,0.00
2022-12-25T05:24:29.468Z,0.00
2022-12-25T05:25:29.549Z,0.00
2022-12-25T05:26:29.787Z,0.00
2022-12-25T05:27:29.909Z,0.00
2022-12-25T05:28:30.135Z,0.00
2022-12-25T05:29:30.207Z,0.00
2022-12-25T05:30:30.414Z,0.00
2022-12-25T05:31:30.741Z,0.00
2022-12-25T05:32:30.827Z,0.00
2022-12-25T05:33:31.042Z,0.00
2022-12-25T05:34:31.250Z,0.00
2022-12-25T05:35:31.440Z,0.00
2022-12-25T05:36:31.677Z,0.00
2022-12-25T05:37:31.860Z,0.00
2022-12-25T05:38:32.081Z,0.00
2022-12-25T05:39:32.290Z,0.00
2022-12-25T05:40:32.380Z,0.00
2022-12-25T05:41:34.647Z,0.00
2022-12-25T05:42:32.754Z,0.00
2022-12-25T05:43:32.956Z,0.00
2022-12-25T05:44:33.148Z,0.00
2022-12-25T05:45:33.354Z,0.00
2022-12-25T05:46:33.626Z,0.00
2022-12-25T05:47:33.716Z,0.00
2022-12-25T05:48:33.932Z,0.00
2022-12-25T05:49:34.127Z,0.00
2022-12-25T05:50:34.341Z,0.00
2022-12-25T05:51:34.579Z,0.00
2022-12-25T05:52:34.692Z,0.00
2022-12-25T05:53:34.886Z,0.00
2022-12-25T05:54:35.108Z,0.00
2022-12-25T05:55:35.325Z,0.00
2022-12-25T05:56:35.562Z,0.00
2022-12-25T05:57:35.654Z,0.00
2022-12-25T05:58:35.864Z,0.00
2022-12-25T05:59:36.074Z,0.00
2022-12-25T06:00:36.297Z,0.00
2022-12-25T06:01:36.632Z,0.00
2022-12-25T06:02:36.943Z,0.00
2022-12-25T06:03:36.985Z,0.00
2022-12-25T06:04:37.070Z,0.00
2022-12-25T06:05:37.307Z,0.00
2022-12-25T06:06:37.407Z,0.00
2022-12-25T06:07:37.634Z,0.00
2022-12-25T06:08:37.738Z,0.00
2022-12-25T06:09:37.948Z,0.00
2022-12-25T06:10:38.188Z,0.00
2022-12-25T06:11:38.287Z,0.00
2022-12-25T06:12:38.499Z,0.00
2022-12-25T06:13:38.714Z,0.00
2022-12-25T06:14:38.906Z,0.00
2022-12-25T06:15:39.116Z,0.00
2022-12-25T06:16:39.374Z,0.00
2022-12-25T06:17:39.502Z,0.00
2022-12-25T06:18:39.735Z,0.00
2022-12-25T06:19:39.922Z,0.00
2022-12-25T06:20:40.146Z,0.00
2022-12-25T06:21:40.356Z,0.00
2022-12-25T06:22:40.567Z,0.00
2022-12-25T06:23:40.762Z,0.00
2022-12-25T06:24:40.849Z,0.00
2022-12-25T06:25:41.094Z,0.00
2022-12-25T06:26:41.184Z,0.00
2022-12-25T06:27:41.393Z,0.00
2022-12-25T06:28:41.597Z,0.00
2022-12-25T06:29:41.803Z,0.00
2022-12-25T06:30:42.013Z,0.00
2022-12-25T06:31:42.288Z,0.00
2022-12-25T06:32:42.368Z,0.00
2022-12-25T06:33:42.602Z,4.00
2022-12-25T06:34:42.724Z,0.00
2022-12-25T06:35:42.923Z,0.00
2022-12-25T06:36:43.174Z,0.00
2022-12-25T06:37:43.255Z,4.00
2022-12-25T06:38:43.448Z,0.00
2022-12-25T06:39:43.637Z,4.00
2022-12-25T06:40:43.827Z,4.00
2022-12-25T06:41:44.045Z,4.00
2022-12-25T06:42:44.241Z,4.00
2022-12-25T06:43:44.439Z,4.00
2022-12-25T06:44:44.662Z,4.00
2022-12-25T06:45:44.945Z,8.00
2022-12-25T06:46:45.062Z,8.00
2022-12-25T06:47:45.293Z,8.00
2022-12-25T06:48:45.487Z,8.00
2022-12-25T06:49:45.726Z,12.00
2022-12-25T06:50:45.839Z,16.00
2022-12-25T06:51:46.075Z,12.00
2022-12-25T06:52:46.195Z,16.00
2022-12-25T06:53:46.415Z,16.00
2022-12-25T06:54:46.634Z,20.00
2022-12-25T06:55:46.850Z,24.00
2022-12-25T06:56:47.067Z,24.00
2022-12-25T06:57:47.288Z,28.00
2022-12-25T06:58:47.500Z,32.00
2022-12-25T06:59:54.575Z,36.00
2022-12-25T07:00:48.894Z,40.00
2022-12-25T07:01:48.207Z,44.00
2022-12-25T07:02:48.269Z,52.00
2022-12-25T07:03:48.447Z,56.00
2022-12-25T07:04:48.592Z,60.00
2022-12-25T07:05:48.760Z,68.00
2022-12-25T07:06:48.917Z,76.00
2022-12-25T07:07:49.074Z,84.00
2022-12-25T07:08:49.252Z,96.00
2022-12-25T07:09:49.425Z,104.00
2022-12-25T07:10:49.586Z,112.00
2022-12-25T07:11:49.770Z,128.00
2022-12-25T07:12:49.934Z,140.00
2022-12-25T07:13:50.088Z,148.00
2022-12-25T07:14:50.382Z,156.00
2022-12-25T07:15:50.431Z,168.00
2022-12-25T07:16:50.629Z,176.00
2022-12-25T07:17:50.719Z,188.00
2022-12-25T07:18:51.846Z,208.00
2022-12-25T07:19:51.130Z,220.00
2022-12-25T07:20:51.310Z,244.00
2022-12-25T07:21:51.472Z,264.00
2022-12-25T07:22:51.636Z,276.00
2022-12-25T07:23:51.835Z,300.00
2022-12-25T07:24:51.993Z,308.00
2022-12-25T07:25:52.153Z,328.00
2022-12-25T07:26:52.311Z,348.00
2022-12-25T07:27:52.481Z,368.00
2022-12-25T07:28:52.672Z,400.00
2022-12-25T07:29:52.823Z,436.00
2022-12-25T07:30:52.973Z,448.00
2022-12-25T07:31:53.227Z,468.00
2022-12-25T07:32:53.369Z,488.00
2022-12-25T07:33:53.528Z,536.00
2022-12-25T07:34:53.709Z,572.00
2022-12-25T07:35:53.882Z,624.00
2022-12-25T07:36:54.095Z,684.00
2022-12-25T07:37:54.253Z,708.00
2022-12-25T07:38:54.423Z,712.00
2022-12-25T07:39:54.581Z,736.00
2022-12-25T07:40:54.727Z,768.00
2022-12-25T07:41:54.894Z,788.00
2022-12-25T07:42:55.045Z,828.00
2022-12-25T07:43:55.214Z,832.00
2022-12-25T07:44:55.382Z,876.00
2022-12-25T07:45:55.552Z,936.00
2022-12-25T07:46:55.682Z,960.00
2022-12-25T07:47:57.765Z,1048.00
2022-12-25T07:48:56.977Z,1108.00
2022-12-25T07:49:56.139Z,1120.00
2022-12-25T07:50:56.314Z,1216.00
2022-12-25T07:51:56.478Z,1276.00
2022-12-25T07:52:56.625Z,1284.00
2022-12-25T07:53:56.792Z,1328.00
2022-12-25T07:54:56.938Z,1416.00
2022-12-25T07:55:57.108Z,1476.00
2022-12-25T07:56:57.256Z,1560.00
2022-12-25T07:57:57.416Z,1576.00
2022-12-25T07:58:57.569Z,1632.00
2022-12-25T07:59:57.741Z,1708.00
2022-12-25T08:00:58.003Z,1668.00
2022-12-25T08:01:58.218Z,1808.00
2022-12-25T08:02:58.329Z,1760.00
2022-12-25T08:03:58.441Z,1880.00
2022-12-25T08:04:58.489Z,1836.00
2022-12-25T08:05:58.670Z,1972.00
2022-12-25T08:06:58.821Z,1948.00
2022-12-25T08:07:58.939Z,2156.00
2022-12-25T08:08:59.178Z,2128.00
2022-12-25T08:09:59.290Z,2268.00
2022-12-25T08:10:59.430Z,2372.00
2022-12-25T08:11:59.609Z,2328.00
2022-12-25T08:12:59.732Z,2348.00
2022-12-25T08:13:59.859Z,2280.00
2022-12-25T08:15:00.001Z,2456.00
2022-12-25T08:16:00.145Z,2356.00
2022-12-25T08:17:00.354Z,2508.00
2022-12-25T08:18:00.396Z,2600.00
2022-12-25T08:19:00.548Z,3000.00
2022-12-25T08:20:00.679Z,2812.00
2022-12-25T08:21:00.846Z,2904.00
2022-12-25T08:22:00.986Z,2784.00
2022-12-25T08:23:01.236Z,3160.00
2022-12-25T08:24:01.261Z,3164.00
2022-12-25T08:25:01.431Z,3232.00
2022-12-25T08:26:04.985Z,3304.00
2022-12-25T08:27:01.785Z,3656.00
2022-12-25T08:28:01.922Z,3532.00
2022-12-25T08:29:02.024Z,3772.00
2022-12-25T08:30:02.155Z,3800.00
2022-12-25T08:31:02.332Z,3668.00
2022-12-25T08:32:02.481Z,3988.00
2022-12-25T08:33:02.687Z,4340.00
2022-12-25T08:34:02.788Z,4092.00
2022-12-25T08:35:02.931Z,4144.00
2022-12-25T08:36:03.076Z,4196.00
2022-12-25T08:37:03.326Z,3728.00
2022-12-25T08:38:03.447Z,3772.00
2022-12-25T08:39:03.733Z,4348.00
2022-12-25T08:40:03.802Z,3912.00
2022-12-25T08:41:03.965Z,3832.00
2022-12-25T08:42:04.171Z,4028.00
2022-12-25T08:43:04.272Z,3840.00
2022-12-25T08:44:04.371Z,4008.00
2022-12-25T08:45:04.561Z,3476.00
2022-12-25T08:46:04.840Z,4156.00
2022-12-25T08:47:05.011Z,3420.00
2022-12-25T08:48:05.100Z,4608.00
2022-12-25T08:49:05.304Z,3700.00
2022-12-25T08:50:05.510Z,3972.00
2022-12-25T08:51:05.623Z,3992.00
2022-12-25T08:52:05.829Z,4148.00
2022-12-25T08:53:06.029Z,4284.00
2022-12-25T08:54:06.214Z,3960.00
2022-12-25T08:55:06.423Z,4184.00
2022-12-25T08:56:06.635Z,4304.00
2022-12-25T08:57:06.730Z,4256.00
2022-12-25T08:58:06.821Z,4888.00
2022-12-25T08:59:07.032Z,5292.00
2022-12-25T09:00:07.115Z,4736.00
2022-12-25T09:01:07.398Z,4248.00
2022-12-25T09:02:07.612Z,4620.00
2022-12-25T09:03:07.803Z,5532.00
2022-12-25T09:04:07.696Z,4944.00
2022-12-25T09:05:07.921Z,4336.00
2022-12-25T09:06:08.004Z,5352.00
2022-12-25T09:07:08.238Z,4788.00
2022-12-25T09:08:08.314Z,4240.00
2022-12-25T09:09:08.413Z,4788.00
2022-12-25T09:10:08.612Z,4844.00
2022-12-25T09:11:08.808Z,4628.00
2022-12-25T09:12:09.015Z,4916.00
2022-12-25T09:13:09.193Z,4964.00
2022-12-25T09:14:09.386Z,4812.00
2022-12-25T09:15:09.585Z,4976.00
2022-12-25T09:16:09.851Z,4488.00
2022-12-25T09:17:10.051Z,5472.00
2022-12-25T09:18:10.127Z,4656.00
2022-12-25T09:19:10.315Z,5148.00
2022-12-25T09:20:10.480Z,5112.00
2022-12-25T09:21:10.663Z,5208.00
2022-12-25T09:22:10.848Z,5328.00
2022-12-25T09:23:14.094Z,5588.00
2022-12-25T09:24:11.186Z,5000.00
2022-12-25T09:25:11.368Z,5440.00
2022-12-25T09:26:11.552Z,4992.00
2022-12-25T09:27:11.741Z,6004.00
2022-12-25T09:28:11.931Z,4860.00
2022-12-25T09:29:12.151Z,6508.00
2022-12-25T09:30:12.307Z,6456.00
2022-12-25T09:31:12.580Z,5788.00
2022-12-25T09:32:12.641Z,5392.00
2022-12-25T09:33:12.842Z,6284.00
2022-12-25T09:34:17.233Z,6084.00
2022-12-25T09:35:14.137Z,5116.00
2022-12-25T09:36:13.291Z,5184.00
2022-12-25T09:37:13.472Z,4848.00
2022-12-25T09:38:13.631Z,3524.00
2022-12-25T09:39:13.811Z,3576.00
2022-12-25T09:40:13.990Z,4696.00
2022-12-25T09:41:14.158Z,5200.00
2022-12-25T09:42:14.327Z,5460.00
2022-12-25T09:43:14.496Z,6064.00
2022-12-25T09:44:14.660Z,6264.00
2022-12-25T09:45:14.834Z,6088.00
2022-12-25T09:46:15.054Z,5484.00
2022-12-25T09:47:15.155Z,6900.00
2022-12-25T09:48:15.303Z,6280.00
2022-12-25T09:49:15.481Z,7240.00
2022-12-25T09:50:15.651Z,7480.00
2022-12-25T09:51:15.849Z,5380.00
2022-12-25T09:52:16.015Z,6428.00
2022-12-25T09:53:16.187Z,6840.00
2022-12-25T09:54:16.338Z,6144.00
2022-12-25T09:55:20.687Z,6740.00
2022-12-25T09:56:16.623Z,5772.00
2022-12-25T09:57:16.824Z,7756.00
2022-12-25T09:58:16.983Z,6516.00
2022-12-25T09:59:17.140Z,7160.00
2022-12-25T10:00:17.277Z,6944.00
2022-12-25T10:01:17.520Z,7372.00
2022-12-25T10:02:17.716Z,6932.00
2022-12-25T10:03:17.744Z,7072.00
2022-12-25T10:04:17.878Z,6900.00
2022-12-25T10:05:18.033Z,7536.00
2022-12-25T10:06:18.177Z,7740.00
2022-12-25T10:07:18.347Z,6792.00
2022-12-25T10:08:18.538Z,6728.00
2022-12-25T10:09:18.693Z,6028.00
2022-12-25T10:10:18.898Z,4984.00
2022-12-25T10:11:18.939Z,3852.00
2022-12-25T10:12:19.104Z,3984.00
2022-12-25T10:13:19.286Z,4412.00
2022-12-25T10:14:19.434Z,5172.00
2022-12-25T10:15:19.620Z,5112.00
2022-12-25T10:16:19.814Z,5380.00
2022-12-25T10:17:19.926Z,4840.00
2022-12-25T10:18:20.083Z,5608.00
2022-12-25T10:19:20.247Z,6264.00
2022-12-25T10:20:20.390Z,5888.00
2022-12-25T10:21:20.553Z,6328.00
2022-12-25T10:22:20.719Z,5832.00
2022-12-25T10:23:20.916Z,5116.00
2022-12-25T10:24:21.080Z,4872.00
2022-12-25T10:25:21.261Z,4392.00
2022-12-25T10:26:21.427Z,4156.00
2022-12-25T10:27:21.611Z,4140.00
2022-12-25T10:28:21.773Z,3996.00
2022-12-25T10:29:21.981Z,4084.00
2022-12-25T10:30:22.094Z,4004.00
2022-12-25T10:31:22.336Z,4300.00
2022-12-25T10:32:22.458Z,4152.00
2022-12-25T10:33:22.626Z,3872.00
2022-12-25T10:34:22.785Z,4036.00
2022-12-25T10:35:22.959Z,3976.00
2022-12-25T10:36:23.139Z,3980.00
2022-12-25T10:37:23.318Z,4060.00
2022-12-25T10:38:23.499Z,4112.00
2022-12-25T10:39:23.674Z,4468.00
2022-12-25T10:40:23.824Z,4756.00
2022-12-25T10:41:23.997Z,5064.00
2022-12-25T10:42:24.192Z,5252.00
2022-12-25T10:43:24.344Z,5316.00
2022-12-25T10:44:24.556Z,5388.00
2022-12-25T10:45:24.634Z,4864.00
2022-12-25T10:46:24.798Z,4824.00
2022-12-25T10:47:24.966Z,4868.00
2022-12-25T10:48:25.131Z,4812.00
2022-12-25T10:49:25.355Z,4524.00
2022-12-25T10:50:25.443Z,4372.00
2022-12-25T10:51:26.456Z,4420.00
2022-12-25T10:52:25.631Z,4092.00
2022-12-25T10:53:25.808Z,4036.00
2022-12-25T10:54:25.977Z,3864.00
2022-12-25T10:55:29.009Z,3620.00
2022-12-25T10:56:26.359Z,3368.00
2022-12-25T10:57:26.645Z,3404.00
2022-12-25T10:58:26.699Z,3344.00
2022-12-25T10:59:26.920Z,3288.00
2022-12-25T11:00:26.978Z,3132.00
2022-12-25T11:01:27.214Z,3112.00
2022-12-25T11:02:27.506Z,3148.00
2022-12-25T11:03:27.639Z,3184.00
2022-12-25T11:04:27.611Z,3320.00
2022-12-25T11:05:27.790Z,3268.00
2022-12-25T11:06:34.975Z,3368.00
2022-12-25T11:07:28.225Z,3516.00
2022-12-25T11:08:28.506Z,3644.00
2022-12-25T11:09:28.677Z,3920.00
2022-12-25T11:10:29.747Z,4088.00
2022-12-25T11:11:28.862Z,4484.00
2022-12-25T11:12:28.943Z,4740.00
2022-12-25T11:13:29.175Z,4756.00
2022-12-25T11:14:29.265Z,5084.00
2022-12-25T11:15:29.426Z,5664.00
2022-12-25T11:16:29.647Z,5380.00
2022-12-25T11:17:29.712Z,4808.00
2022-12-25T11:18:29.896Z,5336.00
2022-12-25T11:19:30.096Z,5556.00
2022-12-25T11:20:30.177Z,4928.00
2022-12-25T11:21:30.380Z,4424.00
2022-12-25T11:22:30.459Z,4404.00
2022-12-25T11:23:30.668Z,4068.00
2022-12-25T11:24:30.994Z,3924.00
2022-12-25T11:25:31.065Z,4068.00
2022-12-25T11:26:31.969Z,3580.00
2022-12-25T11:27:31.163Z,3664.00
2022-12-25T11:28:31.339Z,3128.00
2022-12-25T11:29:31.500Z,3108.00
2022-12-25T11:30:31.672Z,2964.00
2022-12-25T11:31:31.940Z,3220.00
2022-12-25T11:32:32.011Z,3148.00
2022-12-25T11:33:32.191Z,3260.00
2022-12-25T11:34:32.364Z,3056.00
2022-12-25T11:35:32.602Z,2932.00
2022-12-25T11:36:32.669Z,3028.00
2022-12-25T11:37:32.821Z,2928.00
2022-12-25T11:38:33.024Z,2928.00
2022-12-25T11:39:33.162Z,2708.00
2022-12-25T11:40:33.366Z,2436.00
2022-12-25T11:41:33.547Z,2400.00
2022-12-25T11:42:33.788Z,2348.00
2022-12-25T11:43:33.872Z,2344.00
2022-12-25T11:44:34.014Z,2364.00
2022-12-25T11:45:34.185Z,2180.00
2022-12-25T11:46:34.419Z,2204.00
2022-12-25T11:47:34.475Z,2236.00
2022-12-25T11:48:34.648Z,2152.00
2022-12-25T11:49:34.844Z,2228.00
2022-12-25T11:50:35.024Z,2220.00
2022-12-25T11:51:35.193Z,2168.00
2022-12-25T11:52:35.378Z,2204.00
2022-12-25T11:53:35.574Z,2312.00
2022-12-25T11:54:35.840Z,2236.00
2022-12-25T11:55:35.927Z,2416.00
2022-12-25T11:56:36.097Z,2452.00
2022-12-25T11:57:36.317Z,2468.00
2022-12-25T11:58:36.354Z,2676.00
2022-12-25T11:59:36.541Z,2772.00
2022-12-25T12:00:36.780Z,2864.00
2022-12-25T12:01:37.028Z,2912.00
2022-12-25T12:02:37.267Z,2864.00
2022-12-25T12:03:37.248Z,2896.00
2022-12-25T12:04:42.704Z,2840.00
2022-12-25T12:05:38.522Z,2744.00
2022-12-25T12:06:37.676Z,2600.00
2022-12-25T12:07:37.885Z,2404.00
2022-12-25T12:08:37.938Z,2316.00
2022-12-25T12:09:38.124Z,2188.00
2022-12-25T12:10:38.306Z,2132.00
2022-12-25T12:11:38.486Z,2032.00
2022-12-25T12:12:43.101Z,2000.00
2022-12-25T12:13:39.832Z,2016.00
2022-12-25T12:14:39.008Z,1964.00
2022-12-25T12:15:39.200Z,2192.00
2022-12-25T12:16:39.421Z,2224.00
2022-12-25T12:17:39.586Z,2340.00
2022-12-25T12:18:41.798Z,2404.00
2022-12-25T12:19:40.846Z,2624.00
2022-12-25T12:20:40.032Z,2804.00
2022-12-25T12:21:40.268Z,2796.00
2022-12-25T12:22:40.353Z,3148.00
2022-12-25T12:23:40.447Z,3240.00
2022-12-25T12:24:40.534Z,3376.00
2022-12-25T12:25:40.722Z,3340.00
2022-12-25T12:26:40.924Z,3332.00
2022-12-25T12:27:41.008Z,3248.00
2022-12-25T12:28:41.193Z,3240.00
2022-12-25T12:29:41.329Z,3160.00
2022-12-25T12:30:41.522Z,3028.00
2022-12-25T12:31:41.634Z,2820.00
2022-12-25T12:32:41.861Z,2692.00
2022-12-25T12:33:41.985Z,2544.00
2022-12-25T12:34:42.143Z,2420.00
2022-12-25T12:35:42.274Z,2328.00
2022-12-25T12:36:42.429Z,2240.00
2022-12-25T12:37:42.570Z,2128.00
2022-12-25T12:38:42.711Z,2036.00
2022-12-25T12:39:42.855Z,1960.00
2022-12-25T12:40:43.006Z,1912.00
2022-12-25T12:41:43.138Z,1848.00
2022-12-25T12:42:43.306Z,1784.00
2022-12-25T12:43:43.479Z,1684.00
2022-12-25T12:44:43.656Z,1588.00
2022-12-25T12:45:43.901Z,1512.00
2022-12-25T12:46:44.027Z,1452.00
2022-12-25T12:47:44.116Z,1416.00